createdAt,value
2023-07-09T00:01:15.330Z,17.41
2023-07-09T00:04:19.572Z,17.39
2023-07-09T00:07:31.165Z,17.36
2023-07-09T00:10:35.530Z,17.32
2023-07-09T00:13:38.237Z,17.30
2023-07-09T00:16:42.983Z,17.33
2023-07-09T00:19:45.853Z,17.21
2023-07-09T00:22:53.291Z,17.26
2023-07-09T00:25:56.178Z,17.21
2023-07-09T00:29:01.839Z,17.13
2023-07-09T00:32:04.885Z,16.97
2023-07-09T00:35:08.179Z,16.91
2023-07-09T00:38:15.839Z,16.92
2023-07-09T00:41:21.093Z,16.92
2023-07-09T00:44:31.514Z,16.94
2023-07-09T00:48:04.481Z,16.93
2023-07-09T00:51:13.486Z,16.90
2023-07-09T00:54:34.222Z,17.03
2023-07-09T00:57:39.384Z,17.06
2023-07-09T01:00:50.351Z,16.95
2023-07-09T01:04:00.250Z,16.81
2023-07-09T01:07:03.330Z,16.70
2023-07-09T01:10:07.067Z,16.51
2023-07-09T01:13:10.078Z,16.54
2023-07-09T01:16:12.708Z,16.49
2023-07-09T01:19:17.651Z,16.32
2023-07-09T01:22:22.505Z,16.27
2023-07-09T01:25:25.553Z,16.31
2023-07-09T01:28:28.656Z,16.35
2023-07-09T01:31:32.082Z,16.30
2023-07-09T01:34:34.985Z,16.28
2023-07-09T01:37:39.351Z,16.39
2023-07-09T01:40:42.079Z,16.37
2023-07-09T01:43:45.695Z,16.48
2023-07-09T01:46:48.919Z,16.35
2023-07-09T01:49:58.527Z,16.22
2023-07-09T01:53:04.346Z,16.12
2023-07-09T01:56:11.693Z,16.16
2023-07-09T01:59:14.363Z,16.13
2023-07-09T02:02:20.344Z,16.13
2023-07-09T02:05:23.349Z,16.15
2023-07-09T02:08:28.780Z,16.19
2023-07-09T02:11:31.729Z,16.19
2023-07-09T02:14:34.380Z,16.12
2023-07-09T02:17:37.395Z,16.00
2023-07-09T02:20:40.396Z,15.86
2023-07-09T02:23:43.509Z,15.88
2023-07-09T02:26:46.560Z,15.86
2023-07-09T02:29:49.979Z,15.82
2023-07-09T02:32:55.440Z,15.71
2023-07-09T02:35:58.438Z,15.77
2023-07-09T02:39:01.114Z,15.84
2023-07-09T02:42:04.343Z,15.70
2023-07-09T02:45:07.675Z,15.63
2023-07-09T02:48:10.624Z,15.60
2023-07-09T02:51:14.970Z,15.50
2023-07-09T02:54:18.037Z,15.58
2023-07-09T02:57:20.790Z,15.59
2023-07-09T03:00:23.743Z,15.44
2023-07-09T03:03:26.472Z,15.49
2023-07-09T03:06:30.474Z,15.43
2023-07-09T03:09:33.160Z,15.34
2023-07-09T03:12:36.213Z,15.37
2023-07-09T03:15:38.937Z,15.47
2023-07-09T03:18:41.812Z,15.50
2023-07-09T03:21:44.570Z,15.49
2023-07-09T03:24:47.541Z,15.44
2023-07-09T03:27:50.978Z,15.28
2023-07-09T03:30:56.344Z,15.27
2023-07-09T03:33:58.938Z,15.39
2023-07-09T03:37:01.926Z,15.38
2023-07-09T03:40:05.636Z,15.34
2023-07-09T03:43:10.699Z,15.40
2023-07-09T03:46:13.566Z,15.47
2023-07-09T03:49:16.567Z,15.62
2023-07-09T03:52:19.366Z,15.58
2023-07-09T03:55:22.409Z,15.50
2023-07-09T03:58:26.640Z,15.54
2023-07-09T04:01:29.700Z,15.83
2023-07-09T04:04:32.643Z,15.70
2023-07-09T04:07:36.038Z,15.69
2023-07-09T04:10:38.931Z,15.76
2023-07-09T04:13:41.627Z,16.03
2023-07-09T04:16:44.598Z,16.04
2023-07-09T04:19:47.438Z,16.25
2023-07-09T04:22:51.349Z,16.43
2023-07-09T04:25:54.055Z,16.89
2023-07-09T04:28:57.058Z,17.26
2023-07-09T04:31:59.734Z,17.37
2023-07-09T04:35:03.513Z,17.47
2023-07-09T04:38:06.141Z,17.78
2023-07-09T04:41:09.175Z,18.01
2023-07-09T04:44:11.796Z,18.15
2023-07-09T04:47:14.808Z,18.40
2023-07-09T04:50:17.578Z,18.46
2023-07-09T04:53:20.514Z,18.83
2023-07-09T04:56:23.925Z,19.00
2023-07-09T04:59:26.963Z,19.32
2023-07-09T05:02:29.779Z,19.44
2023-07-09T05:05:32.795Z,19.83
2023-07-09T05:08:35.436Z,20.07
2023-07-09T05:11:38.387Z,20.32
2023-07-09T05:14:41.498Z,20.48
2023-07-09T05:17:44.516Z,20.70
2023-07-09T05:20:48.664Z,20.95
2023-07-09T05:23:51.658Z,21.13
2023-07-09T05:26:55.494Z,21.43
2023-07-09T05:29:59.376Z,21.78
2023-07-09T05:33:02.146Z,22.00
2023-07-09T05:36:05.704Z,22.35
2023-07-09T05:39:08.613Z,22.72
2023-07-09T05:42:11.642Z,22.94
2023-07-09T05:45:14.300Z,23.20
2023-07-09T05:48:17.224Z,23.44
2023-07-09T05:51:20.040Z,23.58
2023-07-09T05:54:23.069Z,23.83
2023-07-09T05:57:25.770Z,24.12
2023-07-09T06:00:28.742Z,24.42
2023-07-09T06:03:32.126Z,24.63
2023-07-09T06:06:34.964Z,24.93
2023-07-09T06:09:38.044Z,25.13
2023-07-09T06:12:41.312Z,25.30
2023-07-09T06:15:44.315Z,25.60
2023-07-09T06:18:47.093Z,25.85
2023-07-09T06:21:50.244Z,25.95
2023-07-09T06:24:52.921Z,25.99
2023-07-09T06:27:55.870Z,26.24
2023-07-09T06:30:59.142Z,26.44
2023-07-09T06:34:02.234Z,26.44
2023-07-09T06:37:06.203Z,26.62
2023-07-09T06:40:10.230Z,26.68
2023-07-09T06:43:12.971Z,26.76
2023-07-09T06:46:20.640Z,26.99
2023-07-09T06:49:23.541Z,26.91
2023-07-09T06:52:26.632Z,27.18
2023-07-09T06:55:29.328Z,27.35
2023-07-09T06:58:34.546Z,27.39
2023-07-09T07:01:37.242Z,27.50
2023-07-09T07:04:40.960Z,27.62
2023-07-09T07:07:43.752Z,27.59
2023-07-09T07:10:48.840Z,27.80
2023-07-09T07:13:52.898Z,27.71
2023-07-09T07:16:58.465Z,27.94
2023-07-09T07:20:01.217Z,27.79
2023-07-09T07:23:04.530Z,28.12
2023-07-09T07:26:07.418Z,28.34
2023-07-09T07:29:10.683Z,28.48
2023-07-09T07:32:13.398Z,28.61
2023-07-09T07:35:16.630Z,28.49
2023-07-09T07:38:19.241Z,28.82
2023-07-09T07:41:22.228Z,28.84
2023-07-09T07:44:24.903Z,28.92
2023-07-09T07:47:30.949Z,28.80
2023-07-09T07:50:33.677Z,28.97
2023-07-09T07:53:36.704Z,29.23
2023-07-09T07:56:41.021Z,29.34
2023-07-09T07:59:44.281Z,29.21
2023-07-09T08:02:47.085Z,29.39
2023-07-09T08:05:51.374Z,29.27
2023-07-09T08:08:54.065Z,29.18
2023-07-09T08:11:57.099Z,29.15
2023-07-09T08:14:59.767Z,28.82
2023-07-09T08:18:02.877Z,29.30
2023-07-09T08:21:06.160Z,29.22
2023-07-09T08:24:09.091Z,29.65
2023-07-09T08:27:11.884Z,30.00
2023-07-09T08:30:15.023Z,30.17
2023-07-09T08:33:17.646Z,30.04
2023-07-09T08:36:20.791Z,29.79
2023-07-09T08:39:23.418Z,30.27
2023-07-09T08:42:58.893Z,29.72
2023-07-09T08:46:09.310Z,29.78
2023-07-09T08:49:23.117Z,29.88
2023-07-09T08:52:36.997Z,29.50
2023-07-09T08:55:41.816Z,30.56
2023-07-09T08:58:45.360Z,30.11
2023-07-09T09:01:53.128Z,30.56
2023-07-09T09:04:55.959Z,30.51
2023-07-09T09:08:08.575Z,30.46
2023-07-09T09:11:22.918Z,30.72
2023-07-09T09:14:38.447Z,30.64
2023-07-09T09:17:42.210Z,31.18
2023-07-09T09:20:50.320Z,31.29
2023-07-09T09:23:57.518Z,31.05
2023-07-09T09:27:00.955Z,31.46
2023-07-09T09:30:04.280Z,31.88
2023-07-09T09:33:13.387Z,32.25
2023-07-09T09:36:23.046Z,32.03
2023-07-09T09:39:27.215Z,32.15
2023-07-09T09:42:29.788Z,31.20
2023-07-09T09:45:40.141Z,31.35
2023-07-09T09:48:46.097Z,32.14
2023-07-09T09:51:50.020Z,32.63
2023-07-09T09:54:56.195Z,32.71
2023-07-09T09:57:59.727Z,32.74
2023-07-09T10:01:02.995Z,32.15
2023-07-09T10:04:07.281Z,32.71
2023-07-09T10:07:09.953Z,32.56
2023-07-09T10:10:19.632Z,32.87
2023-07-09T10:13:30.957Z,32.22
2023-07-09T10:16:42.176Z,32.60
2023-07-09T10:20:00.512Z,32.68
2023-07-09T10:23:18.550Z,32.87
2023-07-09T10:26:21.176Z,32.74
2023-07-09T10:29:40.692Z,33.07
2023-07-09T10:33:05.668Z,32.02
2023-07-09T10:36:17.987Z,30.85
2023-07-09T10:39:30.135Z,31.08
2023-07-09T10:42:46.153Z,30.96
2023-07-09T10:45:55.226Z,31.45
2023-07-09T10:49:00.972Z,32.51
2023-07-09T10:52:30.642Z,32.64
2023-07-09T10:55:54.978Z,33.32
2023-07-09T10:59:09.853Z,32.21
2023-07-09T11:02:35.730Z,31.89
2023-07-09T11:05:40.024Z,32.18
2023-07-09T11:08:43.837Z,32.67
2023-07-09T11:11:51.518Z,32.54
2023-07-09T11:15:06.321Z,33.10
2023-07-09T11:18:14.943Z,32.45
2023-07-09T11:21:19.113Z,32.24
2023-07-09T11:24:36.003Z,31.85
2023-07-09T11:28:02.555Z,32.59
2023-07-09T11:31:18.659Z,33.05
2023-07-09T11:34:27.892Z,33.41
2023-07-09T11:37:31.202Z,34.03
2023-07-09T11:40:34.212Z,33.73
2023-07-09T11:43:48.035Z,32.43
2023-07-09T11:47:23.665Z,32.17
2023-07-09T11:50:30.805Z,31.63
2023-07-09T11:53:47.900Z,31.77
2023-07-09T11:56:58.636Z,31.07
2023-07-09T12:00:02.115Z,31.41
2023-07-09T12:03:24.225Z,31.66
2023-07-09T12:06:34.038Z,32.78
2023-07-09T12:09:43.104Z,33.00
2023-07-09T12:12:46.075Z,33.91
2023-07-09T12:15:48.882Z,34.43
2023-07-09T12:18:52.268Z,34.57
2023-07-09T12:21:59.300Z,34.23
2023-07-09T12:25:02.312Z,32.71
2023-07-09T12:28:05.310Z,33.23
2023-07-09T12:31:14.976Z,32.79
2023-07-09T12:34:17.893Z,32.34
2023-07-09T12:37:24.024Z,32.57
2023-07-09T12:40:30.747Z,33.07
2023-07-09T12:43:33.820Z,33.37
2023-07-09T12:46:36.711Z,33.80
2023-07-09T12:49:42.466Z,32.76
2023-07-09T12:52:49.888Z,32.57
2023-07-09T12:55:57.326Z,32.10
2023-07-09T12:59:00.126Z,31.25
2023-07-09T13:02:05.992Z,32.34
2023-07-09T13:05:20.481Z,32.67
2023-07-09T13:08:23.667Z,32.38
2023-07-09T13:11:33.918Z,32.05
2023-07-09T13:14:36.980Z,32.56
2023-07-09T13:17:43.659Z,32.60
2023-07-09T13:20:50.300Z,32.79
2023-07-09T13:23:55.198Z,32.73
2023-07-09T13:27:00.679Z,32.11
2023-07-09T13:30:03.404Z,31.72
2023-07-09T13:33:11.262Z,32.28
2023-07-09T13:36:15.015Z,32.78
2023-07-09T13:39:18.616Z,33.19
2023-07-09T13:42:21.321Z,33.35
2023-07-09T13:45:27.494Z,32.75
2023-07-09T13:48:33.345Z,32.12
2023-07-09T13:51:36.371Z,32.02
2023-07-09T13:54:39.096Z,32.04
2023-07-09T13:57:42.379Z,31.48
2023-07-09T14:00:46.984Z,31.39
2023-07-09T14:03:50.529Z,31.75
2023-07-09T14:06:53.558Z,31.87
2023-07-09T14:09:57.058Z,32.27
2023-07-09T14:12:59.718Z,32.58
2023-07-09T14:16:02.632Z,32.37
2023-07-09T14:19:14.220Z,32.28
2023-07-09T14:22:35.455Z,32.40
2023-07-09T14:25:38.244Z,33.28
2023-07-09T14:28:41.276Z,33.51
2023-07-09T14:31:44.294Z,33.57
2023-07-09T14:34:47.276Z,34.27
2023-07-09T14:37:52.519Z,33.78
2023-07-09T14:41:16.834Z,34.25
2023-07-09T14:44:29.638Z,33.86
2023-07-09T14:47:32.747Z,34.05
2023-07-09T14:50:35.553Z,33.38
2023-07-09T14:53:38.503Z,33.28
2023-07-09T14:56:41.116Z,34.04
2023-07-09T14:59:44.092Z,33.21
2023-07-09T15:02:49.098Z,32.98
2023-07-09T15:05:53.340Z,32.56
2023-07-09T15:08:56.436Z,31.95
2023-07-09T15:12:00.586Z,32.29
2023-07-09T15:15:42.126Z,32.37
2023-07-09T15:18:45.119Z,33.04
2023-07-09T15:21:51.452Z,32.08
2023-07-09T15:24:54.437Z,31.88
2023-07-09T15:27:57.647Z,32.07
2023-07-09T15:31:00.629Z,32.16
2023-07-09T15:34:03.223Z,32.57
2023-07-09T15:37:14.119Z,33.02
2023-07-09T15:40:21.251Z,33.02
2023-07-09T15:43:25.244Z,32.70
2023-07-09T15:46:28.119Z,32.55
2023-07-09T15:49:31.590Z,32.38
2023-07-09T15:52:34.154Z,31.80
2023-07-09T15:55:38.309Z,31.92
2023-07-09T15:58:45.719Z,31.76
2023-07-09T16:01:48.803Z,32.30
2023-07-09T16:04:51.793Z,32.39
2023-07-09T16:07:56.518Z,32.28
2023-07-09T16:10:59.443Z,32.41
2023-07-09T16:14:02.226Z,31.88
2023-07-09T16:17:11.369Z,32.20
2023-07-09T16:20:17.437Z,32.22
2023-07-09T16:23:24.279Z,32.58
2023-07-09T16:26:27.525Z,32.26
2023-07-09T16:29:33.961Z,32.16
2023-07-09T16:32:36.636Z,32.40
2023-07-09T16:35:39.603Z,32.04
2023-07-09T16:38:42.444Z,32.21
2023-07-09T16:41:45.506Z,32.52
2023-07-09T16:44:48.113Z,32.47
2023-07-09T16:47:51.385Z,32.35
2023-07-09T16:50:56.066Z,31.84
2023-07-09T16:53:59.795Z,31.99
2023-07-09T16:57:02.625Z,31.74
2023-07-09T17:00:21.327Z,31.57
2023-07-09T17:03:24.303Z,31.50
2023-07-09T17:06:27.376Z,31.45
2023-07-09T17:09:30.097Z,31.39
2023-07-09T17:12:33.837Z,31.17
2023-07-09T17:15:42.303Z,30.88
2023-07-09T17:18:45.222Z,30.81
2023-07-09T17:21:50.898Z,30.71
2023-07-09T17:24:53.931Z,30.50
2023-07-09T17:28:01.028Z,30.36
2023-07-09T17:31:04.173Z,30.20
2023-07-09T17:34:06.856Z,30.02
2023-07-09T17:37:14.844Z,30.05
2023-07-09T17:40:43.052Z,29.91
2023-07-09T17:43:46.852Z,29.78
2023-07-09T17:46:52.840Z,29.70
2023-07-09T17:49:55.802Z,29.59
2023-07-09T17:52:58.515Z,29.41
2023-07-09T17:56:02.347Z,29.37
2023-07-09T17:59:05.228Z,29.26
2023-07-09T18:02:17.495Z,29.15
2023-07-09T18:05:27.152Z,28.89
2023-07-09T18:08:31.285Z,28.93
2023-07-09T18:11:38.481Z,28.73
2023-07-09T18:14:44.853Z,28.61
2023-07-09T18:17:47.883Z,28.13
2023-07-09T18:20:50.876Z,28.07
2023-07-09T18:23:53.842Z,27.78
2023-07-09T18:26:57.286Z,27.58
2023-07-09T18:30:00.256Z,27.50
2023-07-09T18:33:05.070Z,27.36
2023-07-09T18:36:08.101Z,27.21
2023-07-09T18:39:10.907Z,27.10
2023-07-09T18:42:22.303Z,27.05
2023-07-09T18:45:27.504Z,27.01
2023-07-09T18:48:30.771Z,26.94
2023-07-09T18:51:33.677Z,26.91
2023-07-09T18:54:36.763Z,26.80
2023-07-09T18:57:39.495Z,26.54
2023-07-09T19:00:42.626Z,26.36
2023-07-09T19:03:46.872Z,26.18
2023-07-09T19:06:50.031Z,25.93
2023-07-09T19:09:54.882Z,25.72
2023-07-09T19:13:08.459Z,25.56
2023-07-09T19:16:25.142Z,25.35
2023-07-09T19:19:29.691Z,25.23
2023-07-09T19:22:32.403Z,25.10
2023-07-09T19:25:35.378Z,24.93
2023-07-09T19:28:38.121Z,24.90
2023-07-09T19:31:43.823Z,24.81
2023-07-09T19:34:47.884Z,24.76
2023-07-09T19:37:51.464Z,24.71
2023-07-09T19:40:54.162Z,24.63
2023-07-09T19:43:57.278Z,24.51
2023-07-09T19:47:03.231Z,24.42
2023-07-09T19:50:34.337Z,24.30
2023-07-09T19:53:36.971Z,24.18
2023-07-09T19:56:40.153Z,24.13
2023-07-09T19:59:43.195Z,24.00
2023-07-09T20:02:47.392Z,23.89
2023-07-09T20:05:51.653Z,23.82
2023-07-09T20:08:58.009Z,23.75
2023-07-09T20:12:04.623Z,23.73
2023-07-09T20:15:19.936Z,23.60
2023-07-09T20:18:26.673Z,23.59
2023-07-09T20:21:29.919Z,23.52
2023-07-09T20:24:33.612Z,23.39
2023-07-09T20:27:36.622Z,23.36
2023-07-09T20:30:40.545Z,23.29
2023-07-09T20:33:43.186Z,23.27
2023-07-09T20:36:47.800Z,23.18
2023-07-09T20:39:50.544Z,23.16
2023-07-09T20:42:57.170Z,23.14
2023-07-09T20:45:59.907Z,23.15
2023-07-09T20:49:02.891Z,22.94
2023-07-09T20:52:07.320Z,22.94
2023-07-09T20:55:13.152Z,22.75
2023-07-09T20:58:21.012Z,22.75
2023-07-09T21:01:24.037Z,22.57
2023-07-09T21:04:26.888Z,22.70
2023-07-09T21:07:30.080Z,22.74
2023-07-09T21:10:32.760Z,22.81
2023-07-09T21:13:35.699Z,22.90
2023-07-09T21:16:38.967Z,22.85
2023-07-09T21:19:42.056Z,22.80
2023-07-09T21:22:45.057Z,22.72
2023-07-09T21:25:48.928Z,22.63
2023-07-09T21:28:51.617Z,22.47
2023-07-09T21:31:56.700Z,22.38
2023-07-09T21:35:00.157Z,22.35
2023-07-09T21:38:03.170Z,22.30
2023-07-09T21:41:05.927Z,22.26
2023-07-09T21:44:08.921Z,22.20
2023-07-09T21:47:16.448Z,22.20
2023-07-09T21:50:22.318Z,22.15
2023-07-09T21:53:45.904Z,22.01
2023-07-09T21:56:51.169Z,21.94
2023-07-09T21:59:53.803Z,21.91
2023-07-09T22:02:57.532Z,21.78
2023-07-09T22:06:00.615Z,21.75
2023-07-09T22:09:09.156Z,21.67
2023-07-09T22:12:20.332Z,21.47
2023-07-09T22:15:28.219Z,21.31
2023-07-09T22:18:35.158Z,21.31
2023-07-09T22:21:40.036Z,21.28
2023-07-09T22:24:43.047Z,21.32
2023-07-09T22:27:46.487Z,21.37
2023-07-09T22:30:49.993Z,21.31
2023-07-09T22:33:53.234Z,21.24
2023-07-09T22:36:56.223Z,21.16
2023-07-09T22:39:59.932Z,21.08
2023-07-09T22:43:04.032Z,21.02
2023-07-09T22:46:17.514Z,20.94
2023-07-09T22:49:26.601Z,20.91
2023-07-09T22:52:29.325Z,20.86
2023-07-09T22:55:38.122Z,20.69
2023-07-09T22:58:40.913Z,20.80
2023-07-09T23:01:45.395Z,20.84
2023-07-09T23:04:48.380Z,20.91
2023-07-09T23:07:52.612Z,20.93
2023-07-09T23:10:58.051Z,20.73
2023-07-09T23:14:01.376Z,20.84
2023-07-09T23:17:13.313Z,20.89
2023-07-09T23:20:17.218Z,20.80
2023-07-09T23:23:20.292Z,20.79
2023-07-09T23:26:23.402Z,20.86
2023-07-09T23:29:26.129Z,20.78
2023-07-09T23:32:29.108Z,20.77
2023-07-09T23:35:31.812Z,20.73
2023-07-09T23:38:34.877Z,20.79
2023-07-09T23:41:41.091Z,20.80
2023-07-09T23:44:46.340Z,20.83
2023-07-09T23:47:52.436Z,20.92
2023-07-09T23:51:02.008Z,20.99
2023-07-09T23:54:05.524Z,21.02
2023-07-09T23:57:10.063Z,20.97
